Newman Grove, Nebraska
Current Conditions -  °F | °C
As of 5:15 PM on Wednesday 17 Dec 2014 (Local Time) from KBVN Reporting Station
Overcast Overcast  
Wind Chill: 18°   Ceiling: 6500
Heat Index: 24°   Visibility: 10mi
Dew Point: 19°   Wind: 5mph
Humidity: 81%   Direction: 140°SE
Pressure: 30.2"   Gusts: NA
Location:  41.75°N, 97.78°W
Report Text: KBVN 172315Z AUTO 14004KT 10SM OVC065 M04/M07 A3020 RMK AO2 T10451073
Loading
Personal Weather Stations






























Interactive Weather Map New forecast layout! Learn more

10-Day Weather Forecast

Advertisements
Track Severe Weather on mobile